EPWR

Copernicus Wrocław Airport

Wrocław, Poland

EPWR 010000Z 10010KT CAVOK 05/02 Q1018

Observed Flight Rules
May-1 @ 00:00 UTC (30 minutes ago)
 
Visual Flight Rules
Wind Visibility Clouds
100° at 10 knots 10 km or more
  • Clear skies
Temperatures Readings
Current 5°C / 41°F
Dewpoint 2°C / 36°F
Humidity 81%
Altimeter 30.06" Hg
Pressure 1018 hPa
Elevation 121
Observed Flight Rules
May-1 @ 00:00 UTC
(30 minutes ago)
 
VFR
Wind Visibility
100° at 10 knots 10 km or more
Clouds
  • Clear skies
Temperature Dewpoint
5°C / 41°F 2°C / 36°F
Humidity Altimeter Pressure
81% 30.06" Hg 1018 hPa